sensor_id;sensor_type;location;lat;lon;timestamp;P1;durP1;ratioP1;P2;durP2;ratioP2
18669;SDS011;9464;44.918;9.670;2023-07-02T00:00:15;3.22;;;2.35;;
18669;SDS011;9464;44.918;9.670;2023-07-02T00:02:45;3.75;;;2.50;;
18669;SDS011;9464;44.918;9.670;2023-07-02T00:05:14;4.33;;;2.97;;
18669;SDS011;9464;44.918;9.670;2023-07-02T00:07:43;4.00;;;3.15;;
18669;SDS011;9464;44.918;9.670;2023-07-02T00:10:12;3.67;;;2.63;;
18669;SDS011;9464;44.918;9.670;2023-07-02T00:12:40;4.95;;;3.17;;
18669;SDS011;9464;44.918;9.670;2023-07-02T00:15:10;4.22;;;2.70;;
18669;SDS011;9464;44.918;9.670;2023-07-02T00:17:39;3.40;;;2.70;;
18669;SDS011;9464;44.918;9.670;2023-07-02T00:20:10;5.70;;;2.85;;
18669;SDS011;9464;44.918;9.670;2023-07-02T00:22:43;4.90;;;3.40;;
18669;SDS011;9464;44.918;9.670;2023-07-02T00:25:13;3.47;;;2.90;;
18669;SDS011;9464;44.918;9.670;2023-07-02T00:27:41;5.50;;;2.92;;
18669;SDS011;9464;44.918;9.670;2023-07-02T00:30:10;3.42;;;2.58;;
18669;SDS011;9464;44.918;9.670;2023-07-02T00:32:39;5.65;;;3.00;;
18669;SDS011;9464;44.918;9.670;2023-07-02T00:35:08;5.28;;;2.60;;
18669;SDS011;9464;44.918;9.670;2023-07-02T00:37:37;3.58;;;2.60;;
18669;SDS011;9464;44.918;9.670;2023-07-02T00:40:06;3.80;;;2.70;;
18669;SDS011;9464;44.918;9.670;2023-07-02T00:42:35;4.97;;;2.92;;
18669;SDS011;9464;44.918;9.670;2023-07-02T00:45:04;4.00;;;3.00;;
18669;SDS011;9464;44.918;9.670;2023-07-02T00:47:34;4.50;;;2.58;;
18669;SDS011;9464;44.918;9.670;2023-07-02T00:50:03;3.30;;;2.53;;
18669;SDS011;9464;44.918;9.670;2023-07-02T00:52:33;3.05;;;2.38;;
18669;SDS011;9464;44.918;9.670;2023-07-02T00:55:03;4.57;;;2.77;;
18669;SDS011;9464;44.918;9.670;2023-07-02T00:57:32;3.33;;;2.77;;
18669;SDS011;9464;44.918;9.670;2023-07-02T01:00:00;4.60;;;2.60;;
18669;SDS011;9464;44.918;9.670;2023-07-02T01:02:29;3.07;;;2.73;;
18669;SDS011;9464;44.918;9.670;2023-07-02T01:04:58;6.70;;;3.13;;
18669;SDS011;9464;44.918;9.670;2023-07-02T01:07:28;4.17;;;2.73;;
18669;SDS011;9464;44.918;9.670;2023-07-02T01:09:56;5.13;;;2.93;;
18669;SDS011;9464;44.918;9.670;2023-07-02T01:12:26;4.75;;;2.80;;
18669;SDS011;9464;44.918;9.670;2023-07-02T01:14:56;3.38;;;2.80;;
18669;SDS011;9464;44.918;9.670;2023-07-02T01:17:26;4.13;;;3.00;;
18669;SDS011;9464;44.918;9.670;2023-07-02T01:20:05;2.90;;;2.50;;
18669;SDS011;9464;44.918;9.670;2023-07-02T01:22:35;3.87;;;2.80;;
18669;SDS011;9464;44.918;9.670;2023-07-02T01:25:05;3.43;;;2.57;;
18669;SDS011;9464;44.918;9.670;2023-07-02T01:27:35;8.48;;;3.25;;
18669;SDS011;9464;44.918;9.670;2023-07-02T01:30:05;4.40;;;2.58;;
18669;SDS011;9464;44.918;9.670;2023-07-02T01:32:33;5.33;;;3.00;;
18669;SDS011;9464;44.918;9.670;2023-07-02T01:35:02;4.50;;;3.22;;
18669;SDS011;9464;44.918;9.670;2023-07-02T01:37:32;4.53;;;2.42;;
18669;SDS011;9464;44.918;9.670;2023-07-02T01:40:04;5.30;;;2.80;;
18669;SDS011;9464;44.918;9.670;2023-07-02T01:42:34;4.30;;;2.60;;
18669;SDS011;9464;44.918;9.670;2023-07-02T01:45:03;4.00;;;2.50;;
18669;SDS011;9464;44.918;9.670;2023-07-02T01:47:31;4.50;;;2.47;;
18669;SDS011;9464;44.918;9.670;2023-07-02T01:50:01;3.13;;;2.63;;
18669;SDS011;9464;44.918;9.670;2023-07-02T01:52:31;3.70;;;2.28;;
18669;SDS011;9464;44.918;9.670;2023-07-02T01:55:00;3.30;;;2.90;;
18669;SDS011;9464;44.918;9.670;2023-07-02T01:57:29;3.17;;;2.25;;
18669;SDS011;9464;44.918;9.670;2023-07-02T01:59:58;5.57;;;2.97;;
18669;SDS011;9464;44.918;9.670;2023-07-02T02:02:26;4.07;;;2.70;;
18669;SDS011;9464;44.918;9.670;2023-07-02T02:04:55;3.20;;;2.42;;
18669;SDS011;9464;44.918;9.670;2023-07-02T02:07:24;6.53;;;2.53;;
18669;SDS011;9464;44.918;9.670;2023-07-02T02:09:54;4.27;;;2.53;;
18669;SDS011;9464;44.918;9.670;2023-07-02T02:12:23;3.80;;;2.75;;
18669;SDS011;9464;44.918;9.670;2023-07-02T02:14:51;7.47;;;2.92;;
18669;SDS011;9464;44.918;9.670;2023-07-02T02:17:20;3.17;;;2.77;;
18669;SDS011;9464;44.918;9.670;2023-07-02T02:19:50;3.27;;;2.47;;
18669;SDS011;9464;44.918;9.670;2023-07-02T02:22:18;4.00;;;2.57;;
18669;SDS011;9464;44.918;9.670;2023-07-02T02:24:47;4.87;;;2.67;;
18669;SDS011;9464;44.918;9.670;2023-07-02T02:27:17;3.70;;;2.60;;
18669;SDS011;9464;44.918;9.670;2023-07-02T02:29:45;3.50;;;2.53;;
18669;SDS011;9464;44.918;9.670;2023-07-02T02:32:14;3.53;;;2.57;;
18669;SDS011;9464;44.918;9.670;2023-07-02T02:34:46;3.53;;;2.25;;
18669;SDS011;9464;44.918;9.670;2023-07-02T02:37:14;4.67;;;2.50;;
18669;SDS011;9464;44.918;9.670;2023-07-02T02:39:43;4.83;;;2.30;;
18669;SDS011;9464;44.918;9.670;2023-07-02T02:42:11;3.53;;;2.50;;
18669;SDS011;9464;44.918;9.670;2023-07-02T02:44:41;3.80;;;2.60;;
18669;SDS011;9464;44.918;9.670;2023-07-02T02:47:10;5.43;;;2.50;;
18669;SDS011;9464;44.918;9.670;2023-07-02T02:49:38;3.53;;;2.57;;
18669;SDS011;9464;44.918;9.670;2023-07-02T02:52:07;2.93;;;2.30;;
18669;SDS011;9464;44.918;9.670;2023-07-02T02:54:35;3.10;;;2.27;;
18669;SDS011;9464;44.918;9.670;2023-07-02T02:57:04;3.30;;;2.37;;
18669;SDS011;9464;44.918;9.670;2023-07-02T02:59:33;6.73;;;2.43;;
18669;SDS011;9464;44.918;9.670;2023-07-02T03:02:03;4.77;;;2.40;;
18669;SDS011;9464;44.918;9.670;2023-07-02T03:04:31;3.07;;;2.40;;
18669;SDS011;9464;44.918;9.670;2023-07-02T03:07:00;3.57;;;2.50;;
18669;SDS011;9464;44.918;9.670;2023-07-02T03:09:29;5.17;;;2.47;;
18669;SDS011;9464;44.918;9.670;2023-07-02T03:11:57;5.43;;;2.77;;
18669;SDS011;9464;44.918;9.670;2023-07-02T03:14:26;4.47;;;2.40;;
18669;SDS011;9464;44.918;9.670;2023-07-02T03:16:55;3.27;;;2.50;;
18669;SDS011;9464;44.918;9.670;2023-07-02T03:19:25;3.93;;;2.63;;
18669;SDS011;9464;44.918;9.670;2023-07-02T03:21:54;2.97;;;2.43;;
18669;SDS011;9464;44.918;9.670;2023-07-02T03:24:24;3.00;;;2.20;;
18669;SDS011;9464;44.918;9.670;2023-07-02T03:26:52;4.30;;;2.80;;
18669;SDS011;9464;44.918;9.670;2023-07-02T03:29:20;3.93;;;2.50;;
18669;SDS011;9464;44.918;9.670;2023-07-02T03:31:49;5.03;;;2.83;;
18669;SDS011;9464;44.918;9.670;2023-07-02T03:34:17;4.23;;;2.70;;
18669;SDS011;9464;44.918;9.670;2023-07-02T03:36:47;4.40;;;2.60;;
18669;SDS011;9464;44.918;9.670;2023-07-02T03:39:16;5.27;;;2.20;;
18669;SDS011;9464;44.918;9.670;2023-07-02T03:41:44;3.63;;;2.40;;
18669;SDS011;9464;44.918;9.670;2023-07-02T03:44:13;3.57;;;2.67;;
18669;SDS011;9464;44.918;9.670;2023-07-02T03:46:42;4.47;;;2.50;;
18669;SDS011;9464;44.918;9.670;2023-07-02T03:49:11;3.43;;;2.40;;
18669;SDS011;9464;44.918;9.670;2023-07-02T03:51:39;3.77;;;2.57;;
18669;SDS011;9464;44.918;9.670;2023-07-02T03:54:09;3.57;;;2.43;;
18669;SDS011;9464;44.918;9.670;2023-07-02T03:56:38;3.13;;;2.50;;
18669;SDS011;9464;44.918;9.670;2023-07-02T03:59:06;4.27;;;2.97;;
18669;SDS011;9464;44.918;9.670;2023-07-02T04:01:35;4.87;;;2.70;;
18669;SDS011;9464;44.918;9.670;2023-07-02T04:04:03;4.93;;;2.83;;
18669;SDS011;9464;44.918;9.670;2023-07-02T04:06:32;3.93;;;2.70;;
18669;SDS011;9464;44.918;9.670;2023-07-02T04:09:01;3.37;;;2.53;;
18669;SDS011;9464;44.918;9.670;2023-07-02T04:11:32;3.53;;;2.90;;
18669;SDS011;9464;44.918;9.670;2023-07-02T04:14:01;5.70;;;3.67;;
18669;SDS011;9464;44.918;9.670;2023-07-02T04:16:29;5.40;;;2.57;;
18669;SDS011;9464;44.918;9.670;2023-07-02T04:18:58;3.77;;;3.00;;
18669;SDS011;9464;44.918;9.670;2023-07-02T04:21:27;4.23;;;2.70;;
18669;SDS011;9464;44.918;9.670;2023-07-02T04:23:56;4.40;;;2.83;;
18669;SDS011;9464;44.918;9.670;2023-07-02T04:26:26;2.80;;;2.27;;
18669;SDS011;9464;44.918;9.670;2023-07-02T04:29:17;3.40;;;2.27;;
18669;SDS011;9464;44.918;9.670;2023-07-02T04:31:45;4.72;;;2.42;;
18669;SDS011;9464;44.918;9.670;2023-07-02T04:34:14;4.83;;;2.80;;
18669;SDS011;9464;44.918;9.670;2023-07-02T04:36:43;5.88;;;4.85;;
18669;SDS011;9464;44.918;9.670;2023-07-02T04:39:11;3.28;;;2.83;;
18669;SDS011;9464;44.918;9.670;2023-07-02T04:41:40;4.70;;;3.15;;
18669;SDS011;9464;44.918;9.670;2023-07-02T04:44:08;2.95;;;2.30;;
18669;SDS011;9464;44.918;9.670;2023-07-02T04:46:38;7.57;;;2.63;;
18669;SDS011;9464;44.918;9.670;2023-07-02T04:49:07;3.47;;;3.00;;
18669;SDS011;9464;44.918;9.670;2023-07-02T04:51:35;2.85;;;2.25;;
18669;SDS011;9464;44.918;9.670;2023-07-02T04:54:04;4.28;;;2.63;;
18669;SDS011;9464;44.918;9.670;2023-07-02T04:56:32;2.55;;;2.33;;
18669;SDS011;9464;44.918;9.670;2023-07-02T04:59:01;2.88;;;2.55;;
18669;SDS011;9464;44.918;9.670;2023-07-02T05:01:30;4.50;;;2.75;;
18669;SDS011;9464;44.918;9.670;2023-07-02T05:03:59;3.38;;;2.65;;
18669;SDS011;9464;44.918;9.670;2023-07-02T05:06:28;3.13;;;2.67;;
18669;SDS011;9464;44.918;9.670;2023-07-02T05:08:57;4.53;;;2.45;;
18669;SDS011;9464;44.918;9.670;2023-07-02T05:11:25;3.35;;;2.35;;
18669;SDS011;9464;44.918;9.670;2023-07-02T05:13:54;3.78;;;2.42;;
18669;SDS011;9464;44.918;9.670;2023-07-02T05:16:23;6.15;;;2.67;;
18669;SDS011;9464;44.918;9.670;2023-07-02T05:18:51;4.22;;;2.65;;
18669;SDS011;9464;44.918;9.670;2023-07-02T05:21:21;4.68;;;2.42;;
18669;SDS011;9464;44.918;9.670;2023-07-02T05:23:50;4.85;;;2.42;;
18669;SDS011;9464;44.918;9.670;2023-07-02T05:26:19;4.28;;;2.50;;
18669;SDS011;9464;44.918;9.670;2023-07-02T05:28:47;4.93;;;3.10;;
18669;SDS011;9464;44.918;9.670;2023-07-02T05:31:16;5.03;;;2.47;;
18669;SDS011;9464;44.918;9.670;2023-07-02T05:33:44;3.70;;;2.80;;
18669;SDS011;9464;44.918;9.670;2023-07-02T05:36:13;4.13;;;2.45;;
18669;SDS011;9464;44.918;9.670;2023-07-02T05:38:43;3.60;;;2.67;;
18669;SDS011;9464;44.918;9.670;2023-07-02T05:41:17;3.33;;;2.45;;
18669;SDS011;9464;44.918;9.670;2023-07-02T05:43:46;2.80;;;2.40;;
18669;SDS011;9464;44.918;9.670;2023-07-02T05:46:14;2.75;;;2.20;;
18669;SDS011;9464;44.918;9.670;2023-07-02T05:48:43;5.38;;;2.33;;
18669;SDS011;9464;44.918;9.670;2023-07-02T05:51:12;4.05;;;2.65;;
18669;SDS011;9464;44.918;9.670;2023-07-02T05:53:40;3.35;;;2.58;;
18669;SDS011;9464;44.918;9.670;2023-07-02T05:56:10;4.72;;;3.20;;
18669;SDS011;9464;44.918;9.670;2023-07-02T05:58:39;4.78;;;2.80;;
18669;SDS011;9464;44.918;9.670;2023-07-02T06:01:14;3.17;;;2.72;;
18669;SDS011;9464;44.918;9.670;2023-07-02T06:03:42;3.42;;;2.70;;
18669;SDS011;9464;44.918;9.670;2023-07-02T06:06:12;4.72;;;2.97;;
18669;SDS011;9464;44.918;9.670;2023-07-02T06:08:40;3.72;;;3.30;;
18669;SDS011;9464;44.918;9.670;2023-07-02T06:11:10;4.93;;;2.88;;
18669;SDS011;9464;44.918;9.670;2023-07-02T06:13:39;3.25;;;2.80;;
18669;SDS011;9464;44.918;9.670;2023-07-02T06:16:08;4.03;;;2.90;;
18669;SDS011;9464;44.918;9.670;2023-07-02T06:18:36;6.68;;;2.97;;
18669;SDS011;9464;44.918;9.670;2023-07-02T06:21:05;6.70;;;3.13;;
18669;SDS011;9464;44.918;9.670;2023-07-02T06:23:40;4.45;;;3.15;;
18669;SDS011;9464;44.918;9.670;2023-07-02T06:26:10;4.35;;;2.92;;
18669;SDS011;9464;44.918;9.670;2023-07-02T06:28:39;5.88;;;3.33;;
18669;SDS011;9464;44.918;9.670;2023-07-02T06:31:08;5.15;;;3.13;;
18669;SDS011;9464;44.918;9.670;2023-07-02T06:33:38;14.95;;;9.35;;
18669;SDS011;9464;44.918;9.670;2023-07-02T06:36:07;50.70;;;32.90;;
18669;SDS011;9464;44.918;9.670;2023-07-02T06:38:38;5.53;;;4.45;;
18669;SDS011;9464;44.918;9.670;2023-07-02T06:41:07;5.28;;;3.50;;
18669;SDS011;9464;44.918;9.670;2023-07-02T06:43:37;4.43;;;3.33;;
18669;SDS011;9464;44.918;9.670;2023-07-02T06:46:05;4.78;;;3.25;;
18669;SDS011;9464;44.918;9.670;2023-07-02T06:48:34;9.18;;;4.10;;
18669;SDS011;9464;44.918;9.670;2023-07-02T06:51:02;5.03;;;3.47;;
18669;SDS011;9464;44.918;9.670;2023-07-02T06:53:31;4.10;;;3.20;;
18669;SDS011;9464;44.918;9.670;2023-07-02T06:55:59;7.57;;;5.07;;
18669;SDS011;9464;44.918;9.670;2023-07-02T06:58:28;6.60;;;4.45;;
18669;SDS011;9464;44.918;9.670;2023-07-02T07:00:58;8.02;;;5.57;;
18669;SDS011;9464;44.918;9.670;2023-07-02T07:03:27;7.90;;;6.13;;
18669;SDS011;9464;44.918;9.670;2023-07-02T07:05:55;9.98;;;6.80;;
18669;SDS011;9464;44.918;9.670;2023-07-02T07:08:24;10.57;;;7.72;;
18669;SDS011;9464;44.918;9.670;2023-07-02T07:10:53;8.07;;;6.88;;
18669;SDS011;9464;44.918;9.670;2023-07-02T07:13:21;9.98;;;6.38;;
18669;SDS011;9464;44.918;9.670;2023-07-02T07:15:50;10.10;;;7.05;;
18669;SDS011;9464;44.918;9.670;2023-07-02T07:18:20;13.48;;;8.30;;
18669;SDS011;9464;44.918;9.670;2023-07-02T07:20:49;10.30;;;7.35;;
18669;SDS011;9464;44.918;9.670;2023-07-02T07:23:19;11.00;;;7.47;;
18669;SDS011;9464;44.918;9.670;2023-07-02T07:25:47;10.27;;;7.97;;
18669;SDS011;9464;44.918;9.670;2023-07-02T07:28:16;13.82;;;9.18;;
18669;SDS011;9464;44.918;9.670;2023-07-02T07:30:44;12.25;;;9.55;;
18669;SDS011;9464;44.918;9.670;2023-07-02T07:33:13;13.70;;;9.32;;
18669;SDS011;9464;44.918;9.670;2023-07-02T07:35:43;10.88;;;8.45;;
18669;SDS011;9464;44.918;9.670;2023-07-02T07:38:12;70.25;;;49.05;;
18669;SDS011;9464;44.918;9.670;2023-07-02T07:40:42;46.30;;;33.67;;
18669;SDS011;9464;44.918;9.670;2023-07-02T07:43:11;13.82;;;11.25;;
18669;SDS011;9464;44.918;9.670;2023-07-02T07:45:40;14.35;;;9.52;;
18669;SDS011;9464;44.918;9.670;2023-07-02T07:48:08;15.05;;;9.80;;
18669;SDS011;9464;44.918;9.670;2023-07-02T07:50:37;12.63;;;9.13;;
18669;SDS011;9464;44.918;9.670;2023-07-02T07:53:07;11.00;;;8.60;;
18669;SDS011;9464;44.918;9.670;2023-07-02T07:55:35;10.88;;;7.97;;
18669;SDS011;9464;44.918;9.670;2023-07-02T07:58:04;14.27;;;8.48;;
18669;SDS011;9464;44.918;9.670;2023-07-02T08:00:32;13.18;;;8.60;;
18669;SDS011;9464;44.918;9.670;2023-07-02T08:03:01;11.57;;;9.10;;
18669;SDS011;9464;44.918;9.670;2023-07-02T08:05:30;13.52;;;9.93;;
18669;SDS011;9464;44.918;9.670;2023-07-02T08:07:59;14.10;;;11.25;;
18669;SDS011;9464;44.918;9.670;2023-07-02T08:10:29;29.00;;;21.95;;
18669;SDS011;9464;44.918;9.670;2023-07-02T08:12:57;19.30;;;13.75;;
18669;SDS011;9464;44.918;9.670;2023-07-02T08:15:26;17.58;;;12.38;;
18669;SDS011;9464;44.918;9.670;2023-07-02T08:17:54;15.50;;;11.18;;
18669;SDS011;9464;44.918;9.670;2023-07-02T08:20:25;15.75;;;12.05;;
18669;SDS011;9464;44.918;9.670;2023-07-02T08:22:53;13.90;;;11.05;;
18669;SDS011;9464;44.918;9.670;2023-07-02T08:25:22;21.05;;;13.48;;
18669;SDS011;9464;44.918;9.670;2023-07-02T08:27:54;25.83;;;13.73;;
18669;SDS011;9464;44.918;9.670;2023-07-02T08:30:23;17.67;;;13.35;;
18669;SDS011;9464;44.918;9.670;2023-07-02T08:32:52;17.17;;;13.13;;
18669;SDS011;9464;44.918;9.670;2023-07-02T08:35:22;29.95;;;11.57;;
18669;SDS011;9464;44.918;9.670;2023-07-02T08:37:50;17.27;;;12.90;;
18669;SDS011;9464;44.918;9.670;2023-07-02T08:40:19;82.65;;;12.65;;
18669;SDS011;9464;44.918;9.670;2023-07-02T08:42:48;14.93;;;7.18;;
18669;SDS011;9464;44.918;9.670;2023-07-02T08:45:18;21.33;;;9.10;;
18669;SDS011;9464;44.918;9.670;2023-07-02T08:47:48;14.50;;;8.77;;
18669;SDS011;9464;44.918;9.670;2023-07-02T08:50:17;10.45;;;7.78;;
18669;SDS011;9464;44.918;9.670;2023-07-02T08:52:46;10.48;;;8.10;;
18669;SDS011;9464;44.918;9.670;2023-07-02T08:55:14;11.05;;;7.45;;
18669;SDS011;9464;44.918;9.670;2023-07-02T08:57:47;9.93;;;7.88;;
18669;SDS011;9464;44.918;9.670;2023-07-02T09:00:19;12.77;;;7.90;;
18669;SDS011;9464;44.918;9.670;2023-07-02T09:02:49;13.15;;;8.23;;
18669;SDS011;9464;44.918;9.670;2023-07-02T09:05:17;11.45;;;7.57;;
18669;SDS011;9464;44.918;9.670;2023-07-02T09:07:46;10.75;;;7.10;;
18669;SDS011;9464;44.918;9.670;2023-07-02T09:10:29;10.57;;;7.55;;
18669;SDS011;9464;44.918;9.670;2023-07-02T09:13:04;9.40;;;6.55;;
18669;SDS011;9464;44.918;9.670;2023-07-02T09:15:37;10.07;;;6.97;;
18669;SDS011;9464;44.918;9.670;2023-07-02T09:18:16;13.07;;;8.25;;
18669;SDS011;9464;44.918;9.670;2023-07-02T09:20:45;15.20;;;9.50;;
18669;SDS011;9464;44.918;9.670;2023-07-02T09:23:14;11.20;;;7.75;;
18669;SDS011;9464;44.918;9.670;2023-07-02T09:25:43;13.15;;;8.23;;
18669;SDS011;9464;44.918;9.670;2023-07-02T09:28:15;11.57;;;8.63;;
18669;SDS011;9464;44.918;9.670;2023-07-02T09:30:52;11.95;;;8.13;;
18669;SDS011;9464;44.918;9.670;2023-07-02T09:33:21;9.15;;;6.90;;
18669;SDS011;9464;44.918;9.670;2023-07-02T09:35:50;10.60;;;7.70;;
18669;SDS011;9464;44.918;9.670;2023-07-02T09:38:19;11.40;;;7.82;;
18669;SDS011;9464;44.918;9.670;2023-07-02T09:40:49;9.73;;;7.32;;
18669;SDS011;9464;44.918;9.670;2023-07-02T09:43:19;11.30;;;7.95;;
18669;SDS011;9464;44.918;9.670;2023-07-02T09:45:48;10.70;;;8.15;;
18669;SDS011;9464;44.918;9.670;2023-07-02T09:48:19;12.38;;;8.63;;
18669;SDS011;9464;44.918;9.670;2023-07-02T09:50:50;8.80;;;6.82;;
18669;SDS011;9464;44.918;9.670;2023-07-02T09:53:19;9.77;;;7.18;;
18669;SDS011;9464;44.918;9.670;2023-07-02T09:55:47;12.50;;;8.02;;
18669;SDS011;9464;44.918;9.670;2023-07-02T09:58:16;10.10;;;7.45;;
18669;SDS011;9464;44.918;9.670;2023-07-02T10:00:45;13.57;;;8.45;;
18669;SDS011;9464;44.918;9.670;2023-07-02T10:03:14;9.48;;;6.82;;
18669;SDS011;9464;44.918;9.670;2023-07-02T10:05:44;9.00;;;6.63;;
18669;SDS011;9464;44.918;9.670;2023-07-02T10:08:13;10.70;;;7.35;;
18669;SDS011;9464;44.918;9.670;2023-07-02T10:10:44;10.13;;;7.40;;
18669;SDS011;9464;44.918;9.670;2023-07-02T10:13:13;10.82;;;6.28;;
18669;SDS011;9464;44.918;9.670;2023-07-02T10:15:41;8.52;;;6.65;;
18669;SDS011;9464;44.918;9.670;2023-07-02T10:18:10;10.88;;;7.15;;
18669;SDS011;9464;44.918;9.670;2023-07-02T10:20:39;9.80;;;7.10;;
18669;SDS011;9464;44.918;9.670;2023-07-02T10:23:09;11.30;;;7.90;;
18669;SDS011;9464;44.918;9.670;2023-07-02T10:25:38;10.30;;;8.05;;
18669;SDS011;9464;44.918;9.670;2023-07-02T10:28:16;11.57;;;8.57;;
18669;SDS011;9464;44.918;9.670;2023-07-02T10:30:45;10.25;;;7.55;;
18669;SDS011;9464;44.918;9.670;2023-07-02T10:33:15;8.88;;;6.35;;
18669;SDS011;9464;44.918;9.670;2023-07-02T10:35:44;11.07;;;7.38;;
18669;SDS011;9464;44.918;9.670;2023-07-02T10:38:17;11.80;;;7.60;;
18669;SDS011;9464;44.918;9.670;2023-07-02T10:40:46;11.70;;;7.75;;
18669;SDS011;9464;44.918;9.670;2023-07-02T10:43:23;9.45;;;6.55;;
18669;SDS011;9464;44.918;9.670;2023-07-02T10:45:55;12.05;;;8.23;;
18669;SDS011;9464;44.918;9.670;2023-07-02T10:48:26;9.77;;;6.70;;
18669;SDS011;9464;44.918;9.670;2023-07-02T10:50:55;10.63;;;7.35;;
18669;SDS011;9464;44.918;9.670;2023-07-02T10:53:25;12.13;;;8.15;;
18669;SDS011;9464;44.918;9.670;2023-07-02T10:55:54;9.98;;;7.20;;
18669;SDS011;9464;44.918;9.670;2023-07-02T10:58:24;8.88;;;7.03;;
18669;SDS011;9464;44.918;9.670;2023-07-02T11:00:53;13.93;;;7.35;;
18669;SDS011;9464;44.918;9.670;2023-07-02T11:03:22;10.20;;;6.80;;
18669;SDS011;9464;44.918;9.670;2023-07-02T11:05:51;12.50;;;6.63;;
18669;SDS011;9464;44.918;9.670;2023-07-02T11:08:21;7.43;;;5.35;;
18669;SDS011;9464;44.918;9.670;2023-07-02T11:10:52;8.73;;;6.25;;
18669;SDS011;9464;44.918;9.670;2023-07-02T11:13:31;7.65;;;6.00;;
18669;SDS011;9464;44.918;9.670;2023-07-02T11:16:00;7.90;;;5.78;;
18669;SDS011;9464;44.918;9.670;2023-07-02T11:18:30;7.47;;;5.38;;
18669;SDS011;9464;44.918;9.670;2023-07-02T11:21:08;9.00;;;5.78;;
18669;SDS011;9464;44.918;9.670;2023-07-02T11:23:37;10.15;;;6.43;;
18669;SDS011;9464;44.918;9.670;2023-07-02T11:26:07;7.93;;;5.70;;
18669;SDS011;9464;44.918;9.670;2023-07-02T11:28:46;10.02;;;6.82;;
18669;SDS011;9464;44.918;9.670;2023-07-02T11:31:23;9.43;;;6.40;;
18669;SDS011;9464;44.918;9.670;2023-07-02T11:33:52;9.30;;;6.63;;
18669;SDS011;9464;44.918;9.670;2023-07-02T11:36:21;9.15;;;6.53;;
18669;SDS011;9464;44.918;9.670;2023-07-02T11:38:51;10.57;;;7.10;;
18669;SDS011;9464;44.918;9.670;2023-07-02T11:41:21;8.82;;;6.35;;
18669;SDS011;9464;44.918;9.670;2023-07-02T11:43:49;8.82;;;5.32;;
18669;SDS011;9464;44.918;9.670;2023-07-02T11:46:18;8.70;;;6.10;;
18669;SDS011;9464;44.918;9.670;2023-07-02T11:48:47;7.13;;;5.30;;
18669;SDS011;9464;44.918;9.670;2023-07-02T11:51:15;7.15;;;5.32;;
18669;SDS011;9464;44.918;9.670;2023-07-02T11:53:44;9.43;;;6.00;;
18669;SDS011;9464;44.918;9.670;2023-07-02T11:56:12;9.75;;;6.20;;
18669;SDS011;9464;44.918;9.670;2023-07-02T11:58:42;8.52;;;6.32;;
18669;SDS011;9464;44.918;9.670;2023-07-02T12:01:11;7.45;;;5.38;;
18669;SDS011;9464;44.918;9.670;2023-07-02T12:03:39;7.22;;;5.80;;
18669;SDS011;9464;44.918;9.670;2023-07-02T12:06:08;8.82;;;6.28;;
18669;SDS011;9464;44.918;9.670;2023-07-02T12:08:37;11.55;;;7.28;;
18669;SDS011;9464;44.918;9.670;2023-07-02T12:11:05;9.90;;;7.53;;
18669;SDS011;9464;44.918;9.670;2023-07-02T12:13:34;10.00;;;7.13;;
18669;SDS011;9464;44.918;9.670;2023-07-02T12:16:04;8.70;;;6.40;;
18669;SDS011;9464;44.918;9.670;2023-07-02T12:18:32;7.00;;;5.18;;
18669;SDS011;9464;44.918;9.670;2023-07-02T12:21:01;11.40;;;6.70;;
18669;SDS011;9464;44.918;9.670;2023-07-02T12:23:30;9.48;;;5.78;;
18669;SDS011;9464;44.918;9.670;2023-07-02T12:25:58;8.25;;;6.18;;
18669;SDS011;9464;44.918;9.670;2023-07-02T12:28:27;8.25;;;5.80;;
18669;SDS011;9464;44.918;9.670;2023-07-02T12:30:55;9.13;;;6.25;;
18669;SDS011;9464;44.918;9.670;2023-07-02T12:33:25;8.27;;;5.28;;
18669;SDS011;9464;44.918;9.670;2023-07-02T12:35:54;7.68;;;5.45;;
18669;SDS011;9464;44.918;9.670;2023-07-02T12:38:22;6.47;;;5.00;;
18669;SDS011;9464;44.918;9.670;2023-07-02T12:40:51;5.10;;;4.00;;
18669;SDS011;9464;44.918;9.670;2023-07-02T12:43:20;5.93;;;4.40;;
18669;SDS011;9464;44.918;9.670;2023-07-02T12:45:49;6.63;;;3.88;;
18669;SDS011;9464;44.918;9.670;2023-07-02T12:48:18;7.13;;;5.45;;
18669;SDS011;9464;44.918;9.670;2023-07-02T12:50:54;8.05;;;5.78;;
18669;SDS011;9464;44.918;9.670;2023-07-02T12:53:23;7.60;;;5.90;;
18669;SDS011;9464;44.918;9.670;2023-07-02T12:55:52;6.45;;;5.32;;
18669;SDS011;9464;44.918;9.670;2023-07-02T12:58:21;10.30;;;6.35;;
18669;SDS011;9464;44.918;9.670;2023-07-02T13:00:50;8.10;;;6.03;;
18669;SDS011;9464;44.918;9.670;2023-07-02T13:03:18;9.82;;;5.43;;
18669;SDS011;9464;44.918;9.670;2023-07-02T13:05:49;5.85;;;4.20;;
18669;SDS011;9464;44.918;9.670;2023-07-02T13:08:19;5.13;;;4.57;;
18669;SDS011;9464;44.918;9.670;2023-07-02T13:10:48;6.32;;;5.10;;
18669;SDS011;9464;44.918;9.670;2023-07-02T13:13:16;9.00;;;5.32;;
18669;SDS011;9464;44.918;9.670;2023-07-02T13:15:50;5.88;;;4.65;;
18669;SDS011;9464;44.918;9.670;2023-07-02T13:18:18;8.68;;;6.93;;
18669;SDS011;9464;44.918;9.670;2023-07-02T13:20:47;12.02;;;5.28;;
18669;SDS011;9464;44.918;9.670;2023-07-02T13:23:16;7.15;;;4.90;;
18669;SDS011;9464;44.918;9.670;2023-07-02T13:25:46;5.68;;;4.63;;
18669;SDS011;9464;44.918;9.670;2023-07-02T13:28:15;4.82;;;4.18;;
18669;SDS011;9464;44.918;9.670;2023-07-02T13:30:43;5.32;;;4.20;;
18669;SDS011;9464;44.918;9.670;2023-07-02T13:33:12;6.43;;;4.20;;
18669;SDS011;9464;44.918;9.670;2023-07-02T13:35:41;4.90;;;4.22;;
18669;SDS011;9464;44.918;9.670;2023-07-02T13:38:10;5.55;;;4.22;;
18669;SDS011;9464;44.918;9.670;2023-07-02T13:40:39;5.95;;;4.65;;
18669;SDS011;9464;44.918;9.670;2023-07-02T13:43:09;5.45;;;4.30;;
18669;SDS011;9464;44.918;9.670;2023-07-02T13:45:38;6.20;;;4.35;;
18669;SDS011;9464;44.918;9.670;2023-07-02T13:48:06;6.57;;;4.38;;
18669;SDS011;9464;44.918;9.670;2023-07-02T13:50:35;5.53;;;4.22;;
18669;SDS011;9464;44.918;9.670;2023-07-02T13:53:03;5.15;;;4.38;;
18669;SDS011;9464;44.918;9.670;2023-07-02T13:55:32;5.10;;;4.43;;
18669;SDS011;9464;44.918;9.670;2023-07-02T13:58:01;5.65;;;4.55;;
18669;SDS011;9464;44.918;9.670;2023-07-02T14:00:31;4.50;;;3.83;;
18669;SDS011;9464;44.918;9.670;2023-07-02T14:02:59;5.45;;;4.72;;
18669;SDS011;9464;44.918;9.670;2023-07-02T14:05:28;4.28;;;3.60;;
18669;SDS011;9464;44.918;9.670;2023-07-02T14:07:57;6.25;;;4.57;;
18669;SDS011;9464;44.918;9.670;2023-07-02T14:10:25;6.28;;;4.38;;
18669;SDS011;9464;44.918;9.670;2023-07-02T14:12:55;5.22;;;4.10;;
18669;SDS011;9464;44.918;9.670;2023-07-02T14:15:24;5.70;;;4.28;;
18669;SDS011;9464;44.918;9.670;2023-07-02T14:17:55;5.25;;;4.72;;
18669;SDS011;9464;44.918;9.670;2023-07-02T14:20:24;5.22;;;4.13;;
18669;SDS011;9464;44.918;9.670;2023-07-02T14:22:52;5.63;;;4.35;;
18669;SDS011;9464;44.918;9.670;2023-07-02T14:25:21;4.32;;;3.88;;
18669;SDS011;9464;44.918;9.670;2023-07-02T14:28:06;5.40;;;4.38;;
18669;SDS011;9464;44.918;9.670;2023-07-02T14:30:35;5.97;;;4.55;;
18669;SDS011;9464;44.918;9.670;2023-07-02T14:33:06;4.22;;;3.47;;
18669;SDS011;9464;44.918;9.670;2023-07-02T14:35:34;5.63;;;4.10;;
18669;SDS011;9464;44.918;9.670;2023-07-02T14:38:03;8.35;;;4.50;;
18669;SDS011;9464;44.918;9.670;2023-07-02T14:40:31;6.55;;;4.75;;
18669;SDS011;9464;44.918;9.670;2023-07-02T14:43:00;3.78;;;3.40;;
18669;SDS011;9464;44.918;9.670;2023-07-02T14:45:30;3.63;;;3.13;;
18669;SDS011;9464;44.918;9.670;2023-07-02T14:47:59;3.88;;;2.70;;
18669;SDS011;9464;44.918;9.670;2023-07-02T14:50:29;4.47;;;3.20;;
18669;SDS011;9464;44.918;9.670;2023-07-02T14:52:58;3.97;;;3.10;;
18669;SDS011;9464;44.918;9.670;2023-07-02T14:55:26;4.00;;;2.80;;
18669;SDS011;9464;44.918;9.670;2023-07-02T14:57:55;3.25;;;2.78;;
18669;SDS011;9464;44.918;9.670;2023-07-02T15:00:23;3.53;;;3.10;;
18669;SDS011;9464;44.918;9.670;2023-07-02T15:02:52;4.10;;;3.53;;
18669;SDS011;9464;44.918;9.670;2023-07-02T15:05:21;3.65;;;3.30;;
18669;SDS011;9464;44.918;9.670;2023-07-02T15:07:51;3.70;;;2.92;;
18669;SDS011;9464;44.918;9.670;2023-07-02T15:10:19;63.78;;;38.28;;